Time;durP1;ratioP1;P1;durP2;ratioP2;P2;SDS_P1;SDS_P2;PMS_P1;PMS_P2;Temp;Humidity;BMP_temperature;BMP_pressure;BME280_temperature;BME280_humidity;BME280_pressure;Samples;Min_cycle;Max_cycle;Signal;HPM_P1;HPM_P2
2023/02/23 00:01:23;;;;;;;26.17;18.30;;;;;;;6.73;100.00;101208.06;10220372;28;20045;-66
2023/02/23 00:06:19;;;;;;;29.42;18.50;;;;;;;6.71;100.00;101204.00;10221584;28;20528;-65
2023/02/23 00:11:16;;;;;;;27.77;18.80;;;;;;;6.64;100.00;101198.88;10233625;28;20083;-66
2023/02/23 00:16:15;;;;;;;26.40;18.13;;;;;;;6.60;100.00;101192.34;10224461;28;20049;-65
2023/02/23 00:21:33;;;;;;;28.50;19.15;;;;;;;6.57;100.00;101192.09;10225004;28;20049;-65
2023/02/23 00:26:33;;;;;;;23.90;18.77;;;;;;;6.52;100.00;101188.34;10228926;28;20041;-65
2023/02/23 00:31:30;;;;;;;24.70;18.33;;;;;;;6.46;100.00;101194.06;10218707;28;20042;-65
2023/02/23 00:36:30;;;;;;;26.00;17.95;;;;;;;6.35;100.00;101189.75;10218896;28;20507;-65
2023/02/23 00:41:27;;;;;;;30.95;19.60;;;;;;;6.39;100.00;101190.84;10216884;28;20041;-67
2023/02/23 00:46:26;;;;;;;28.85;18.98;;;;;;;6.29;100.00;101191.69;10223929;28;20140;-65
2023/02/23 00:51:29;;;;;;;29.15;19.55;;;;;;;6.32;100.00;101185.69;10223941;28;20096;-65
2023/02/23 00:56:26;;;;;;;32.13;20.08;;;;;;;6.29;100.00;101187.06;10215393;28;20057;-65
2023/02/23 01:01:23;;;;;;;27.60;18.10;;;;;;;6.29;100.00;101191.69;10221498;28;20041;-65
2023/02/23 01:06:20;;;;;;;28.73;17.83;;;;;;;6.28;100.00;101190.84;10223810;28;20063;-66
2023/02/23 01:11:20;;;;;;;29.15;18.48;;;;;;;6.31;100.00;101189.47;10217969;28;20140;-65
2023/02/23 01:16:20;;;;;;;34.03;18.90;;;;;;;6.35;100.00;101198.72;10219043;28;20049;-65
2023/02/23 01:21:19;;;;;;;31.00;19.45;;;;;;;6.41;100.00;101192.19;10228767;28;20132;-65
2023/02/23 01:26:25;;;;;;;39.30;21.30;;;;;;;6.32;100.00;101194.66;10228663;28;20128;-65
2023/02/23 01:31:23;;;;;;;29.58;20.40;;;;;;;6.38;100.00;101194.63;10209222;28;20049;-67
2023/02/23 01:36:19;;;;;;;29.52;19.98;;;;;;;6.37;100.00;101188.38;10224167;28;20435;-67
2023/02/23 01:41:16;;;;;;;32.00;19.10;;;;;;;6.34;100.00;101183.53;10215385;28;20060;-65
2023/02/23 01:46:13;;;;;;;32.45;19.75;;;;;;;6.23;100.00;101181.94;10206080;28;20049;-67
2023/02/23 01:51:16;;;;;;;31.88;20.75;;;;;;;6.24;100.00;101183.53;10217991;28;20132;-68
2023/02/23 01:56:20;;;;;;;28.98;18.23;;;;;;;6.20;100.00;101179.78;10217601;28;20045;-67
2023/02/23 02:01:22;;;;;;;;;;;;;;;6.25;100.00;101177.84;10219130;28;20050;-65
2023/02/23 02:06:22;;;;;;;29.88;19.00;;;;;;;6.31;100.00;101178.63;10211075;28;19925;-67
2023/02/23 02:11:29;;;;;;;30.35;18.85;;;;;;;6.38;100.00;101181.84;10225491;28;20049;-67
2023/02/23 02:16:41;;;;;;;30.80;18.80;;;;;;;6.45;100.00;101174.25;10220615;28;20168;-67
2023/02/23 02:22:24;;;;;;;30.52;20.30;;;;;;;6.44;100.00;101171.78;10216427;28;20057;-67
2023/02/23 02:27:42;;;;;;;29.40;19.42;;;;;;;6.46;100.00;101170.41;10203481;28;20137;-67
2023/02/23 02:32:57;;;;;;;30.92;18.80;;;;;;;6.49;100.00;101180.72;10220205;28;20426;-67
2023/02/23 02:38:10;;;;;;;29.50;19.27;;;;;;;6.52;100.00;101180.19;10215321;28;20041;-67
2023/02/23 02:43:19;;;;;;;30.17;19.48;;;;;;;6.56;100.00;101174.19;10215260;28;20064;-67
2023/02/23 02:48:29;;;;;;;28.45;19.80;;;;;;;6.59;100.00;101170.88;10210352;28;20084;-67
2023/02/23 02:53:48;;;;;;;29.65;20.70;;;;;;;6.58;100.00;101172.00;10223617;28;20046;-67
2023/02/23 02:58:49;;;;;;;32.33;19.13;;;;;;;6.50;100.00;101176.94;10225384;28;20140;-67
2023/02/23 04:18:58;;;;;;;31.33;20.05;;;;;;;6.60;100.00;101158.94;10224401;28;20037;-65
2023/02/23 04:23:54;;;;;;;28.85;20.35;;;;;;;6.63;100.00;101164.63;10225432;28;20811;-67
2023/02/23 04:28:50;;;;;;;32.65;22.50;;;;;;;6.73;100.00;101169.22;10218379;28;20046;-67
2023/02/23 04:33:47;;;;;;;36.45;20.75;;;;;;;6.74;100.00;101170.81;10217049;28;20049;-67
2023/02/23 04:38:43;;;;;;;35.67;21.10;;;;;;;6.76;100.00;101178.69;10227209;28;20514;-67
2023/02/23 04:43:40;;;;;;;36.78;22.42;;;;;;;6.78;100.00;101166.44;10224173;28;20133;-67
2023/02/23 04:48:36;;;;;;;35.20;20.98;;;;;;;6.82;100.00;101162.06;10218753;28;20053;-67
2023/02/23 04:53:33;;;;;;;31.45;21.55;;;;;;;6.89;100.00;101167.19;10219153;28;20052;-67
2023/02/23 04:58:30;;;;;;;37.05;22.08;;;;;;;6.85;100.00;101169.66;10208861;28;20503;-67
2023/02/23 05:03:27;;;;;;;32.05;20.27;;;;;;;6.90;100.00;101174.25;10213163;28;20412;-67
2023/02/23 05:08:23;;;;;;;32.22;21.58;;;;;;;6.90;100.00;101163.38;10213041;28;20132;-67
2023/02/23 05:13:20;;;;;;;32.85;22.52;;;;;;;6.81;100.00;101160.44;10219024;28;20558;-66
2023/02/23 05:18:17;;;;;;;33.63;19.80;;;;;;;6.85;100.00;101164.22;10219534;28;20496;-67
2023/02/23 05:23:13;;;;;;;37.75;23.08;;;;;;;6.94;100.00;101161.72;10222019;28;20088;-67
2023/02/23 05:28:10;;;;;;;41.78;23.38;;;;;;;6.98;100.00;101170.94;10209537;28;20045;-67
2023/02/23 05:33:06;;;;;;;39.15;24.00;;;;;;;6.94;100.00;101170.69;10213871;28;20049;-67
2023/02/23 05:38:03;;;;;;;39.10;24.50;;;;;;;6.95;100.00;101161.44;10200783;28;20140;-67
2023/02/23 05:43:00;;;;;;;39.67;24.10;;;;;;;7.02;100.00;101168.47;10217735;28;20133;-67
2023/02/23 05:47:56;;;;;;;37.05;23.83;;;;;;;7.05;100.00;101163.25;10211299;28;20697;-67
2023/02/23 05:52:53;;;;;;;39.70;23.92;;;;;;;7.08;100.00;101170.06;10225369;28;20080;-67
2023/02/23 05:57:49;;;;;;;44.47;25.55;;;;;;;7.07;100.00;101168.44;10219022;28;20045;-67
2023/02/23 06:02:46;;;;;;;38.47;24.90;;;;;;;7.05;100.00;101176.06;10210107;28;20465;-67
2023/02/23 06:07:43;;;;;;;42.65;25.42;;;;;;;7.09;100.00;101177.13;10216895;28;20451;-68
2023/02/23 06:12:39;;;;;;;41.30;25.35;;;;;;;7.05;100.00;101181.50;10199721;28;20552;-67
2023/02/23 06:17:36;;;;;;;49.42;27.77;;;;;;;7.09;100.00;101182.56;10214761;28;20061;-67
2023/02/23 06:22:32;;;;;;;38.58;24.35;;;;;;;7.11;100.00;101180.38;10218125;28;20429;-67
2023/02/23 06:27:29;;;;;;;43.90;26.63;;;;;;;7.13;100.00;101189.06;10223911;28;20056;-67
2023/02/23 06:32:25;;;;;;;46.80;27.73;;;;;;;7.16;100.00;101193.91;10213860;28;20046;-67
2023/02/23 06:37:22;;;;;;;67.93;33.55;;;;;;;7.07;100.00;101201.06;10213550;28;20041;-67
2023/02/23 06:42:18;;;;;;;61.72;30.80;;;;;;;7.16;100.00;101204.81;10207467;28;20051;-68
2023/02/23 06:47:15;;;;;;;71.82;31.88;;;;;;;7.10;100.00;101205.91;10225223;28;20042;-66
2023/02/23 06:52:12;;;;;;;60.53;29.60;;;;;;;7.03;100.00;101205.44;10214789;28;20049;-66
2023/02/23 06:57:09;;;;;;;59.10;29.77;;;;;;;7.19;100.00;101214.28;10224022;28;20053;-66
2023/02/23 07:02:06;;;;;;;70.90;30.92;;;;;;;7.08;100.00;101219.00;10221399;28;20080;-67
2023/02/23 07:07:03;;;;;;;72.13;32.33;;;;;;;7.15;100.00;101227.66;10214464;28;20048;-66
2023/02/23 07:12:00;;;;;;;84.20;35.17;;;;;;;7.04;100.00;101232.34;10218526;28;20140;-66
2023/02/23 07:16:57;;;;;;;83.47;34.95;;;;;;;7.08;100.00;101240.75;10218506;28;20041;-66
2023/02/23 07:21:53;;;;;;;78.97;32.80;;;;;;;7.02;100.00;101236.44;10216206;28;20132;-66
2023/02/23 07:26:50;;;;;;;86.63;36.65;;;;;;;6.97;100.00;101255.50;10215455;28;20045;-66
2023/02/23 07:31:48;;;;;;;96.28;35.80;;;;;;;6.83;100.00;101247.97;10210941;28;20049;-66
2023/02/23 07:36:45;;;;;;;92.30;37.67;;;;;;;6.97;100.00;101250.88;10216395;28;20129;-66
2023/02/23 07:41:41;;;;;;;90.35;35.47;;;;;;;7.00;100.00;101254.94;10209310;28;20048;-66
2023/02/23 07:46:38;;;;;;;94.80;38.30;;;;;;;6.89;100.00;101260.44;10216230;28;20066;-66
2023/02/23 07:51:35;;;;;;;90.35;36.08;;;;;;;6.90;100.00;101259.34;10207647;28;20081;-66
2023/02/23 07:56:32;;;;;;;91.60;35.92;;;;;;;7.01;100.00;101267.44;10212367;28;20292;-67
2023/02/23 08:01:28;;;;;;;82.68;32.30;;;;;;;6.95;100.00;101275.63;10217685;28;20132;-66
2023/02/23 08:06:25;;;;;;;69.13;29.10;;;;;;;6.98;100.00;101268.00;10224552;28;20052;-67
2023/02/23 08:11:22;;;;;;;85.53;33.58;;;;;;;6.90;100.00;101283.81;10212746;28;20076;-66
2023/02/23 08:16:18;;;;;;;87.03;33.60;;;;;;;6.80;100.00;101283.84;10202831;28;20053;-66
2023/02/23 08:21:15;;;;;;;73.75;30.80;;;;;;;6.74;100.00;101291.19;10205204;28;20056;-67
2023/02/23 08:26:11;;;;;;;60.85;28.25;;;;;;;6.78;100.00;101282.47;10221743;28;20069;-67
2023/02/23 08:31:09;;;;;;;63.47;28.33;;;;;;;6.63;100.00;101288.81;10215134;28;20447;-66
2023/02/23 08:36:07;;;;;;;67.28;33.40;;;;;;;6.69;100.00;101295.84;10208243;28;20050;-66
2023/02/23 08:41:04;;;;;;;70.00;30.02;;;;;;;6.68;100.00;101297.78;10210122;28;20221;-66
2023/02/23 08:46:01;;;;;;;67.82;31.88;;;;;;;6.61;100.00;101293.69;10217545;28;20038;-67
2023/02/23 08:50:58;;;;;;;93.88;37.50;;;;;;;6.62;100.00;101293.44;10208419;28;20492;-67
2023/02/23 08:55:56;;;;;;;62.88;27.92;;;;;;;6.67;100.00;101295.31;10209956;28;20119;-66
2023/02/23 09:00:52;;;;;;;67.82;31.00;;;;;;;6.62;100.00;101295.34;10218791;28;20156;-66
2023/02/23 09:05:49;;;;;;;61.35;28.70;;;;;;;6.58;100.00;101291.53;10216121;28;20099;-66
2023/02/23 09:10:45;;;;;;;60.75;28.05;;;;;;;6.63;100.00;101291.53;10218589;28;20049;-66
2023/02/23 09:15:42;;;;;;;63.88;28.52;;;;;;;6.68;100.00;101291.50;10211644;28;20038;-66
2023/02/23 09:20:43;;;;;;;64.97;30.33;;;;;;;6.82;100.00;101291.72;10207458;28;20045;-66
2023/02/23 09:25:44;;;;;;;61.45;29.55;;;;;;;6.82;100.00;101297.97;10214062;28;20073;-66
2023/02/23 09:30:42;;;;;;;61.47;29.85;;;;;;;6.75;100.00;101297.44;10211694;28;20104;-66
2023/02/23 09:35:40;;;;;;;62.17;30.25;;;;;;;6.85;100.00;101302.06;10209316;28;20049;-66
2023/02/23 09:40:52;;;;;;;69.30;33.15;;;;;;;6.52;100.00;101298.88;10200142;28;20045;-66
2023/02/23 09:45:52;;;;;;;94.03;38.88;;;;;;;6.42;100.00;101305.16;10211728;28;20067;-66
2023/02/23 09:50:52;;;;;;;96.28;37.78;;;;;;;6.34;100.00;101308.44;10203852;28;20469;-66
2023/02/23 09:55:52;;;;;;;101.60;42.03;;;;;;;6.35;100.00;101315.50;10209900;28;20077;-66
2023/02/23 10:01:22;;;;;;;98.18;39.00;;;;;;;6.28;100.00;101320.41;10206224;28;20069;-66
2023/02/23 10:06:19;;;;;;;119.10;43.08;;;;;;;6.17;100.00;101329.66;10212643;28;20052;-66
2023/02/23 10:11:37;;;;;;;135.63;47.08;;;;;;;6.36;100.00;101328.00;10203676;28;20120;-66
2023/02/23 10:16:49;;;;;;;119.82;41.83;;;;;;;6.31;100.00;101322.56;10211633;28;20103;-66
2023/02/23 10:21:54;;;;;;;134.88;48.25;;;;;;;6.46;100.00;101327.97;10211685;28;20056;-66
2023/02/23 10:26:55;;;;;;;125.30;42.53;;;;;;;6.53;100.00;101320.34;10209869;28;20042;-65
2023/02/23 10:31:56;;;;;;;134.50;46.35;;;;;;;6.45;100.00;101318.22;10213967;28;20075;-66
2023/02/23 10:37:00;;;;;;;129.65;46.88;;;;;;;6.46;100.00;101311.69;10211948;28;20091;-66
2023/02/23 10:41:59;;;;;;;116.10;42.30;;;;;;;6.52;100.00;101315.19;10218983;28;20053;-66
2023/02/23 10:47:01;;;;;;;125.30;42.53;;;;;;;6.55;100.00;101322.00;10215519;28;20042;-66
2023/02/23 10:52:01;;;;;;;116.77;41.30;;;;;;;6.51;100.00;101314.38;10213322;28;20416;-66
2023/02/23 10:56:58;;;;;;;125.78;43.38;;;;;;;6.49;100.00;101321.97;10211923;28;20658;-66
2023/02/23 11:01:54;;;;;;;110.97;42.85;;;;;;;6.43;100.00;101333.97;10209960;28;20042;-66
2023/02/23 11:07:19;;;;;;;115.63;38.42;;;;;;;6.18;100.00;101332.09;10208459;28;20510;-66
2023/02/23 11:12:21;;;;;;;114.45;39.58;;;;;;;6.21;100.00;101330.72;10216508;28;20076;-66
2023/02/23 11:17:35;;;;;;;103.83;36.67;;;;;;;6.32;100.00;101316.06;10214460;28;20416;-66
2023/02/23 11:22:34;;;;;;;99.38;34.58;;;;;;;6.56;100.00;101304.59;10214095;28;20065;-66
2023/02/23 11:27:31;;;;;;;85.43;31.80;;;;;;;6.98;100.00;101295.19;10215233;28;20053;-66
2023/02/23 11:32:37;;;;;;;95.38;36.17;;;;;;;6.92;100.00;101287.06;10215309;28;20057;-66
2023/02/23 11:37:35;;;;;;;86.88;32.25;;;;;;;7.05;100.00;101284.81;10212288;28;20049;-66
2023/02/23 11:42:32;;;;;;;89.70;35.60;;;;;;;7.01;100.00;101267.44;10227841;28;20068;-66
2023/02/23 11:47:30;;;;;;;83.55;31.15;;;;;;;7.08;100.00;101284.28;10207649;28;20051;-66
2023/02/23 11:52:28;;;;;;;78.53;30.20;;;;;;;6.80;100.00;101267.56;10204682;28;20120;-66
2023/02/23 11:57:28;;;;;;;84.88;32.97;;;;;;;7.07;100.00;101271.75;10211093;28;20042;-66
2023/02/23 12:02:30;;;;;;;81.35;31.33;;;;;;;7.40;100.00;101263.94;10211730;28;20145;-67
2023/02/23 12:07:42;;;;;;;91.00;31.55;;;;;;;7.51;100.00;101262.75;10201274;28;20081;-67
2023/02/23 12:12:53;;;;;;;92.63;35.08;;;;;;;7.35;100.00;101257.41;10209190;28;20558;-66
2023/02/23 12:17:56;;;;;;;80.55;31.95;;;;;;;7.16;100.00;101251.84;10216354;28;20033;-67
2023/02/23 12:22:58;;;;;;;79.35;29.98;;;;;;;7.22;100.00;101249.91;10221215;28;20100;-67
2023/02/23 12:28:26;;;;;;;76.72;29.50;;;;;;;7.10;100.00;101254.88;10218640;28;20092;-66
2023/02/23 12:33:32;;;;;;;81.55;29.25;;;;;;;7.08;100.00;101262.53;10225551;28;20073;-67
2023/02/23 12:38:42;;;;;;;84.85;29.95;;;;;;;7.04;100.00;101261.44;10219857;28;20123;-67
2023/02/23 12:43:48;;;;;;;71.63;27.85;;;;;;;6.98;100.00;101262.56;10219738;28;20152;-66
2023/02/23 12:49:15;;;;;;;81.95;30.27;;;;;;;6.99;100.00;101264.19;10228706;28;20033;-66
2023/02/23 12:54:15;;;;;;;81.97;30.48;;;;;;;7.00;100.00;101265.81;10219465;28;20508;-66
2023/02/23 12:59:26;;;;;;;81.95;29.90;;;;;;;7.00;100.00;101254.94;10223888;28;20045;-66
2023/02/23 13:04:40;;;;;;;75.25;28.15;;;;;;;7.09;100.00;101256.78;10226483;28;20045;-66
2023/02/23 13:09:54;;;;;;;86.15;32.17;;;;;;;7.23;100.00;101254.25;10222471;28;20041;-67
2023/02/23 13:15:20;;;;;;;82.13;32.53;;;;;;;7.20;100.00;101254.00;10211370;28;20136;-67
2023/02/23 13:20:32;;;;;;;74.05;30.83;;;;;;;7.15;100.00;101242.06;10228798;28;20160;-67
2023/02/23 13:25:56;;;;;;;76.60;28.53;;;;;;;7.09;100.00;101242.38;10215186;28;20111;-67
2023/02/23 13:30:53;;;;;;;76.95;35.15;;;;;;;7.01;100.00;101234.78;10222488;28;20511;-67
2023/02/23 13:35:51;;;;;;;63.30;25.33;;;;;;;7.12;100.00;101234.44;10223560;28;20136;-67
2023/02/23 13:40:57;;;;;;;63.83;25.58;;;;;;;7.07;100.00;101239.13;10220710;28;20495;-66
2023/02/23 13:46:36;;;;;;;65.32;25.95;;;;;;;7.18;100.00;101237.97;10226836;28;20048;-67
2023/02/23 13:51:46;;;;;;;60.17;25.15;;;;;;;7.26;100.00;101231.91;10217128;28;20049;-67
2023/02/23 13:56:54;;;;;;;63.45;24.80;;;;;;;7.22;100.00;101236.31;10221471;28;20140;-66
2023/02/23 14:01:52;;;;;;;58.42;22.08;;;;;;;7.21;100.00;101229.22;10218736;28;20037;-67
2023/02/23 14:07:03;;;;;;;56.38;23.83;;;;;;;7.27;100.00;101233.56;10224878;28;20045;-67
2023/02/23 14:12:18;;;;;;;51.42;21.85;;;;;;;7.31;100.00;101231.91;10224269;28;20061;-66
2023/02/23 14:17:14;;;;;;;51.17;22.48;;;;;;;7.30;100.00;101227.53;10213422;28;20050;-66
2023/02/23 14:22:20;;;;;;;50.45;21.30;;;;;;;7.30;100.00;101232.97;10217463;28;20077;-66
2023/02/23 14:27:33;;;;;;;48.03;20.00;;;;;;;7.26;100.00;101237.34;10216470;28;20099;-66
2023/02/23 14:32:43;;;;;;;48.20;18.48;;;;;;;7.30;100.00;101232.97;10215366;28;20053;-67
2023/02/23 14:37:40;;;;;;;42.17;18.92;;;;;;;7.31;100.00;101229.19;10211211;28;20042;-67
2023/02/23 14:42:39;;;;;;;37.85;17.65;;;;;;;7.27;100.00;101222.69;10219335;28;20131;-66
2023/02/23 14:47:46;;;;;;;31.38;13.77;;;;;;;7.24;100.00;101223.25;10215376;28;20641;-66
2023/02/23 14:52:42;;;;;;;33.45;15.65;;;;;;;7.27;100.00;101227.31;10215308;28;20045;-67
2023/02/23 14:57:41;;;;;;;30.42;14.68;;;;;;;7.33;100.00;101232.44;10220616;28;20069;-68
2023/02/23 15:02:38;;;;;;;31.40;15.27;;;;;;;7.36;100.00;101231.84;10216387;28;20049;-68
2023/02/23 15:07:50;;;;;;;31.05;15.95;;;;;;;7.43;100.00;101241.63;10226628;28;20079;-68
2023/02/23 15:12:47;;;;;;;37.60;16.70;;;;;;;7.45;100.00;101233.97;10214820;28;20048;-68
2023/02/23 15:17:48;;;;;;;30.98;16.15;;;;;;;7.51;100.00;101232.84;10217323;28;20038;-68
2023/02/23 15:22:50;;;;;;;36.40;16.80;;;;;;;7.35;100.00;101234.84;10225832;28;20128;-68
2023/02/23 15:27:47;;;;;;;33.80;15.85;;;;;;;7.37;100.00;101233.47;10214028;28;20562;-68
2023/02/23 15:32:43;;;;;;;38.20;17.35;;;;;;;7.32;100.00;101240.88;10232539;28;20141;-68
2023/02/23 15:37:45;;;;;;;39.30;16.05;;;;;;;7.13;100.00;101259.75;10214216;28;20069;-68
2023/02/23 15:42:44;;;;;;;;;;;;;;;7.05;100.00;101268.50;10215024;28;20092;-67
2023/02/23 15:47:41;;;;;;;40.05;18.10;;;;;;;6.93;100.00;101264.19;10223598;28;20286;-68
2023/02/23 15:52:48;;;;;;;42.80;19.45;;;;;;;6.82;100.00;101259.91;10205408;28;20052;-68
2023/02/23 15:57:52;;;;;;;51.67;20.73;;;;;;;6.73;100.00;101272.47;10213061;28;20500;-67
2023/02/23 16:02:48;;;;;;;43.75;20.33;;;;;;;6.73;100.00;101258.88;10209823;28;20072;-68
2023/02/23 16:07:45;;;;;;;50.30;21.27;;;;;;;6.62;100.00;101271.69;10214314;28;20100;-67
2023/02/23 16:12:45;;;;;;;56.75;22.67;;;;;;;6.41;100.00;101275.56;10216689;28;20480;-67
2023/02/23 16:17:47;;;;;;;51.38;21.10;;;;;;;6.36;100.00;101273.69;10209949;28;20073;-67
2023/02/23 16:22:45;;;;;;;50.30;20.98;;;;;;;6.36;100.00;101273.69;10204739;28;20096;-68
2023/02/23 16:27:44;;;;;;;49.13;19.52;;;;;;;6.36;100.00;101268.25;10208993;28;20065;-68
2023/02/23 16:32:42;;;;;;;42.92;18.90;;;;;;;6.39;100.00;101277.75;10223293;28;20041;-67
2023/02/23 16:37:59;;;;;;;42.83;17.25;;;;;;;6.27;100.00;101275.34;10222602;28;20321;-67
2023/02/23 16:42:58;;;;;;;40.85;18.67;;;;;;;6.18;100.00;101279.69;10222039;28;20056;-67
2023/02/23 16:48:00;;;;;;;46.22;17.00;;;;;;;6.15;100.00;101293.81;10226828;28;20792;-67
2023/02/23 16:52:57;;;;;;;51.00;19.13;;;;;;;6.15;100.00;101293.81;10220438;28;20072;-68
2023/02/23 16:57:57;;;;;;;41.28;18.58;;;;;;;6.08;100.00;101294.91;10228938;28;20072;-68
2023/02/23 17:02:54;;;;;;;53.10;18.45;;;;;;;6.16;100.00;101306.31;10223693;28;20045;-68
2023/02/23 17:07:52;;;;;;;32.00;12.73;;;;;;;5.92;100.00;101290.56;10219754;28;20050;-67
2023/02/23 17:12:48;;;;;;;35.20;11.82;;;;;;;5.93;100.00;101300.31;10203561;28;20049;-67
2023/02/23 17:17:44;;;;;;;30.00;10.95;;;;;;;5.94;100.00;101291.13;10221232;28;20426;-68
2023/02/23 17:22:41;;;;;;;32.50;9.40;;;;;;;5.78;100.00;101284.03;10216800;28;20042;-67
2023/02/23 17:27:37;;;;;;;23.27;8.15;;;;;;;5.49;100.00;101281.84;10223095;28;20480;-67
2023/02/23 17:32:35;;;;;;;22.65;7.72;;;;;;;5.38;100.00;101281.00;10221280;28;20052;-67
2023/02/23 17:37:36;;;;;;;21.55;9.30;;;;;;;5.38;100.00;101285.63;10221457;28;20100;-67
2023/02/23 17:42:33;;;;;;;27.73;9.00;;;;;;;5.34;100.00;101284.53;10222917;28;20053;-67
2023/02/23 17:47:32;;;;;;;34.17;7.90;;;;;;;5.14;100.00;101280.72;10209999;28;20498;-66
2023/02/23 17:52:29;;;;;;;29.60;10.48;;;;;;;5.23;100.00;101284.53;10216766;28;20045;-67
2023/02/23 17:57:26;;;;;;;21.15;8.02;;;;;;;5.31;100.00;101287.78;10223672;28;20473;-67
2023/02/23 18:02:23;;;;;;;24.67;8.13;;;;;;;5.22;100.00;101287.50;10226446;28;20063;-67
2023/02/23 18:07:20;;;;;;;19.70;7.43;;;;;;;5.18;100.00;101281.00;10220332;28;20069;-66
2023/02/23 18:12:18;;;;;;;27.33;7.97;;;;;;;4.98;100.00;101281.75;10214171;28;20084;-67
2023/02/23 18:17:15;;;;;;;30.65;8.73;;;;;;;4.89;100.00;101277.94;10211045;28;20045;-67
2023/02/23 18:22:12;;;;;;;30.92;7.93;;;;;;;5.03;100.00;101279.84;10203649;28;20704;-67
2023/02/23 18:27:09;;;;;;;19.52;7.55;;;;;;;5.04;100.00;101275.28;10205373;28;20491;-67
2023/02/23 18:32:06;;;;;;;27.85;8.82;;;;;;;5.07;100.00;101280.16;10204847;28;20470;-67
2023/02/23 18:37:04;;;;;;;26.95;7.90;;;;;;;4.85;100.00;101278.47;10211521;28;20057;-67
2023/02/23 18:42:02;;;;;;;24.63;7.78;;;;;;;4.92;100.00;101275.50;10197465;28;20565;-67
2023/02/23 18:46:59;;;;;;;24.85;7.43;;;;;;;4.77;100.00;101270.03;10195162;28;20049;-67
2023/02/23 18:51:56;;;;;;;20.63;7.75;;;;;;;4.83;100.00;101282.53;10204771;28;20120;-67
2023/02/23 18:56:54;;;;;;;23.55;7.22;;;;;;;4.76;100.00;101276.53;10206523;28;20467;-67
2023/02/23 19:01:51;;;;;;;22.08;7.32;;;;;;;4.73;100.00;101275.16;10218588;28;20053;-67
2023/02/23 19:06:48;;;;;;;15.13;7.07;;;;;;;4.61;100.00;101282.69;10198578;28;20514;-67
2023/02/23 19:11:44;;;;;;;25.90;7.95;;;;;;;4.52;100.00;101281.56;10210090;28;20092;-67
2023/02/23 19:16:42;;;;;;;24.35;9.00;;;;;;;4.22;100.00;101281.16;10203491;28;20042;-67
2023/02/23 19:21:38;;;;;;;11.70;6.35;;;;;;;3.94;100.00;101268.75;10209607;28;20042;-67
2023/02/23 19:26:36;;;;;;;32.17;8.73;;;;;;;3.89;100.00;101282.25;10207282;28;20038;-67
2023/02/23 19:31:33;;;;;;;25.25;6.82;;;;;;;3.71;100.00;101278.06;10200825;28;20073;-67
2023/02/23 19:36:30;;;;;;;17.25;6.78;;;;;;;3.61;100.00;101274.47;10200817;28;20053;-68
2023/02/23 19:41:27;;;;;;;16.30;8.23;;;;;;;3.67;100.00;101284.25;10203749;28;20514;-67
2023/02/23 19:46:26;;;;;;;16.65;6.90;;;;;;;3.83;100.00;101274.34;10206993;28;20129;-67
2023/02/23 19:51:23;;;;;;;16.33;6.55;;;;;;;3.84;100.00;101278.69;10206518;28;20049;-67
2023/02/23 19:56:21;;;;;;;11.60;6.38;;;;;;;3.64;100.00;101279.34;10204155;28;20527;-67
2023/02/23 20:01:19;;;;;;;17.08;7.60;;;;;;;3.49;100.00;101288.97;10203822;28;20471;-67
2023/02/23 20:06:16;;;;;;;14.27;7.15;;;;;;;3.38;100.00;101289.94;10205650;28;20054;-67
2023/02/23 20:11:16;;;;;;;13.70;6.15;;;;;;;3.29;100.00;101284.16;10217886;28;20455;-67
2023/02/23 20:16:13;;;;;;;22.10;7.43;;;;;;;3.32;100.00;101288.25;10219433;28;20053;-67
2023/02/23 20:21:21;;;;;;;16.83;6.30;;;;;;;3.31;100.00;101281.22;10211205;28;20077;-67
2023/02/23 20:26:22;;;;;;;26.33;6.38;;;;;;;3.34;100.00;101288.78;10202266;28;20045;-67
2023/02/23 20:31:26;;;;;;;21.80;7.57;;;;;;;3.34;100.00;101286.94;10211056;28;20491;-67
2023/02/23 20:36:24;;;;;;;31.73;9.32;;;;;;;3.43;100.00;101284.56;10196296;28;20435;-67
2023/02/23 20:41:21;;;;;;;22.17;6.45;;;;;;;3.40;100.00;101287.78;10202947;28;20065;-67
2023/02/23 20:46:18;;;;;;;16.50;6.15;;;;;;;3.44;100.00;101286.22;10217938;28;20049;-68
2023/02/23 20:51:17;;;;;;;15.93;6.20;;;;;;;3.47;100.00;101274.06;10207287;28;20045;-67
2023/02/23 20:56:17;;;;;;;11.73;6.90;;;;;;;3.45;100.00;101270.81;10216476;28;20049;-67
2023/02/23 21:01:21;;;;;;;18.90;6.95;;;;;;;3.40;100.00;101274.28;10203461;28;20080;-67
2023/02/23 21:06:21;;;;;;;12.15;5.55;;;;;;;3.53;100.00;101268.44;10208298;28;20454;-67
2023/02/23 21:11:18;;;;;;;18.17;7.35;;;;;;;3.51;100.00;101276.00;10219390;28;20042;-67
2023/02/23 21:16:17;;;;;;;11.27;5.55;;;;;;;3.51;100.00;101276.00;10204670;28;20069;-67
2023/02/23 21:21:15;;;;;;;17.63;5.97;;;;;;;3.39;100.00;101261.84;10219510;28;20041;-67
2023/02/23 21:26:12;;;;;;;12.65;6.25;;;;;;;3.45;100.00;101260.78;10205198;28;20069;-68
2023/02/23 21:31:11;;;;;;;12.18;5.50;;;;;;;3.48;100.00;101249.50;10204977;28;21164;-67
2023/02/23 21:36:09;;;;;;;15.65;7.13;;;;;;;3.50;100.00;101247.31;10213846;28;20503;-67
2023/02/23 21:41:07;;;;;;;22.05;7.68;;;;;;;3.53;100.00;101246.81;10208532;28;20050;-67
2023/02/23 21:46:09;;;;;;;19.95;5.90;;;;;;;3.53;100.00;101246.00;10208265;28;20077;-67
2023/02/23 21:51:10;;;;;;;13.18;5.10;;;;;;;3.55;100.00;101249.25;10207945;28;20070;-67
2023/02/23 21:56:12;;;;;;;10.10;5.53;;;;;;;3.61;100.00;101236.59;10200061;28;20056;-67
2023/02/23 22:01:11;;;;;;;16.23;5.30;;;;;;;3.56;100.00;101234.66;10212688;28;20048;-67
2023/02/23 22:06:08;;;;;;;18.88;5.00;;;;;;;3.63;100.00;101226.34;10213934;28;20667;-67
2023/02/23 22:11:10;;;;;;;13.57;5.03;;;;;;;3.63;100.00;101219.03;10211163;28;20053;-67
2023/02/23 22:16:07;;;;;;;9.52;4.10;;;;;;;3.61;100.00;101214.97;10222559;28;20049;-67
2023/02/23 22:21:03;;;;;;;12.52;4.35;;;;;;;3.61;100.00;101209.56;10210492;28;20056;-67
2023/02/23 22:26:00;;;;;;;8.07;4.25;;;;;;;3.58;100.00;101203.59;10217463;28;20057;-67
2023/02/23 22:31:08;;;;;;;8.68;5.03;;;;;;;3.63;100.00;101202.81;10212811;28;20635;-67
2023/02/23 22:36:06;;;;;;;10.30;4.28;;;;;;;3.63;100.00;101193.91;10216897;28;20069;-67
2023/02/23 22:41:07;;;;;;;13.38;5.68;;;;;;;3.68;100.00;101199.34;10204298;28;20157;-67
2023/02/23 22:46:05;;;;;;;14.40;4.80;;;;;;;3.55;100.00;101185.19;10214822;28;20427;-67
2023/02/23 22:51:01;;;;;;;10.48;4.30;;;;;;;3.52;100.00;101174.88;10211063;28;20054;-67
2023/02/23 22:55:58;;;;;;;6.80;4.50;;;;;;;3.48;100.00;101190.00;10205112;28;20088;-67
2023/02/23 23:01:05;;;;;;;11.88;4.65;;;;;;;3.65;100.00;101183.63;10224504;28;20563;-67
2023/02/23 23:06:06;;;;;;;13.85;5.05;;;;;;;3.61;100.00;101161.69;10208485;28;20089;-67
2023/02/23 23:11:11;;;;;;;14.63;4.80;;;;;;;3.51;100.00;101157.03;10215585;28;20053;-67
2023/02/23 23:16:11;;;;;;;9.98;4.25;;;;;;;3.46;100.00;101146.19;10220865;28;20045;-67
2023/02/23 23:21:23;;;;;;;11.30;4.30;;;;;;;3.33;100.00;101138.53;10224422;28;20046;-67
2023/02/23 23:26:22;;;;;;;9.88;4.38;;;;;;;3.37;100.00;101134.22;10217746;28;20103;-67
2023/02/23 23:31:22;;;;;;;10.70;4.72;;;;;;;3.38;100.00;101130.44;10220838;28;20041;-67
2023/02/23 23:36:23;;;;;;;8.07;3.67;;;;;;;3.27;100.00;101134.13;10216140;28;20631;-67
2023/02/23 23:41:20;;;;;;;11.13;4.57;;;;;;;3.05;100.00;101132.34;10214421;28;20051;-67
2023/02/23 23:46:23;;;;;;;8.38;4.13;;;;;;;2.85;100.00;101134.88;10219395;28;20046;-67
2023/02/23 23:51:26;;;;;;;11.30;3.65;;;;;;;2.87;100.00;101122.72;10208052;28;20133;-67